Time;durP1;ratioP1;P1;durP2;ratioP2;P2;SDS_P1;SDS_P2;PMS_P1;PMS_P2;Temp;Humidity;BMP_temperature;BMP_pressure;BME280_temperature;BME280_humidity;BME280_pressure;Samples;Min_cycle;Max_cycle;Signal;HPM_P1;HPM_P2
2021/01/24 00:02:17;;;;;;;9.27;4.57;;;3.90;63.70;;;;;;5057544;28;20515;-83
2021/01/24 00:04:43;;;;;;;10.13;5.37;;;4.00;63.50;;;;;;5076909;28;20020;-84
2021/01/24 00:07:09;;;;;;;8.70;5.13;;;4.00;63.50;;;;;;5076512;28;20021;-84
2021/01/24 00:09:34;;;;;;;7.33;4.17;;;4.00;63.70;;;;;;5072984;28;20033;-83
2021/01/24 00:12:00;;;;;;;8.37;5.03;;;4.00;63.80;;;;;;5068302;28;20029;-84
2021/01/24 00:14:26;;;;;;;8.60;5.07;;;4.00;63.80;;;;;;5061697;28;20025;-83
2021/01/24 00:16:51;;;;;;;9.00;5.07;;;4.00;63.90;;;;;;5064595;28;20032;-83
2021/01/24 00:19:17;;;;;;;7.67;4.53;;;4.00;63.80;;;;;;5069573;28;20060;-83
2021/01/24 00:21:43;;;;;;;7.80;4.83;;;4.00;63.70;;;;;;5072945;28;20117;-83
2021/01/24 00:24:09;;;;;;;8.40;5.03;;;4.00;63.70;;;;;;5068806;28;20477;-83
2021/01/24 00:26:35;;;;;;;6.73;3.70;;;4.10;63.70;;;;;;5065225;28;20079;-83
2021/01/24 00:29:01;;;;;;;6.50;3.90;;;4.10;63.80;;;;;;5068840;28;20035;-83
2021/01/24 00:31:27;;;;;;;6.93;4.23;;;4.00;63.30;;;;;;5065469;28;20049;-83
2021/01/24 00:33:52;;;;;;;6.57;3.87;;;3.90;63.40;;;;;;5074943;28;20043;-83
2021/01/24 00:36:19;;;;;;;6.43;3.60;;;3.80;63.80;;;;;;5072883;28;20490;-83
2021/01/24 00:38:46;;;;;;;8.70;4.53;;;3.90;63.90;;;;;;5060278;28;20028;-83
2021/01/24 00:41:12;;;;;;;9.33;5.73;;;3.90;63.80;;;;;;5055125;28;20017;-83
2021/01/24 00:43:38;;;;;;;12.23;7.30;;;3.90;63.90;;;;;;5067745;28;20027;-83
2021/01/24 00:46:03;;;;;;;6.93;4.67;;;3.90;63.90;;;;;;5063216;28;20438;-84
2021/01/24 00:48:34;;;;;;;10.00;5.33;;;3.90;63.90;;;;;;5062428;28;20028;-83
2021/01/24 00:51:00;;;;;;;8.60;4.07;;;3.90;64.60;;;;;;5070763;28;20021;-83
2021/01/24 00:53:26;;;;;;;7.60;4.07;;;4.00;64.00;;;;;;5059827;28;20100;-83
2021/01/24 00:55:52;;;;;;;6.00;4.17;;;4.00;63.90;;;;;;5071130;28;20033;-83
2021/01/24 00:58:18;;;;;;;8.57;5.00;;;4.00;63.90;;;;;;5072237;28;20078;-83
2021/01/24 01:00:43;;;;;;;9.90;6.33;;;3.90;63.80;;;;;;5062557;28;20021;-81
2021/01/24 01:03:11;;;;;;;13.30;7.00;;;3.90;63.90;;;;;;5066998;28;20028;-81
2021/01/24 01:05:37;;;;;;;11.30;6.70;;;3.90;64.00;;;;;;5072236;28;20021;-83
2021/01/24 01:08:03;;;;;;;9.50;5.30;;;3.90;64.20;;;;;;5063884;28;20043;-83
2021/01/24 01:10:29;;;;;;;6.93;4.43;;;3.80;64.10;;;;;;5065541;28;20032;-82
2021/01/24 01:12:55;;;;;;;6.43;3.90;;;3.80;64.20;;;;;;5069809;28;20037;-83
2021/01/24 01:15:21;;;;;;;6.77;3.40;;;3.90;64.40;;;;;;5056890;28;20096;-83
2021/01/24 01:17:47;;;;;;;7.30;3.63;;;3.80;64.20;;;;;;5065285;28;20039;-83
2021/01/24 01:20:13;;;;;;;6.97;3.30;;;3.80;64.30;;;;;;5071723;28;20087;-82
2021/01/24 01:22:39;;;;;;;6.57;3.60;;;3.80;64.30;;;;;;5073561;28;20024;-83
2021/01/24 01:25:05;;;;;;;9.80;4.47;;;3.80;64.20;;;;;;5063931;28;20017;-83
2021/01/24 01:27:30;;;;;;;7.37;4.70;;;3.80;64.20;;;;;;5070974;28;20029;-83
2021/01/24 01:29:56;;;;;;;9.77;7.07;;;3.80;64.80;;;;;;5070138;28;20182;-83
2021/01/24 01:32:22;;;;;;;12.13;7.63;;;3.70;64.30;;;;;;5066207;28;20049;-83
2021/01/24 01:34:47;;;;;;;11.50;7.30;;;3.80;64.50;;;;;;5059580;28;20028;-82
2021/01/24 01:37:13;;;;;;;9.13;6.10;;;3.80;64.50;;;;;;5063394;28;20033;-83
2021/01/24 01:39:39;;;;;;;9.17;6.07;;;3.70;64.50;;;;;;5068700;28;20442;-83
2021/01/24 01:42:14;;;;;;;7.47;5.17;;;3.70;64.80;;;;;;5073978;28;20013;-82
2021/01/24 01:44:44;;;;;;;6.90;4.07;;;3.70;64.60;;;;;;5066635;28;20033;-82
2021/01/24 01:47:11;;;;;;;5.43;3.83;;;3.70;64.60;;;;;;5061040;28;20017;-82
2021/01/24 01:49:37;;;;;;;6.33;3.70;;;3.70;64.60;;;;;;5070702;28;20028;-82
2021/01/24 01:52:03;;;;;;;9.53;3.87;;;3.70;64.50;;;;;;5071969;28;20055;-82
2021/01/24 01:54:29;;;;;;;5.73;3.80;;;3.60;64.60;;;;;;5064717;28;20012;-82
2021/01/24 01:56:55;;;;;;;6.43;3.50;;;3.70;65.30;;;;;;5064822;28;20051;-82
2021/01/24 01:59:21;;;;;;;8.87;4.20;;;3.70;64.70;;;;;;5064522;28;20024;-83
2021/01/24 02:02:17;;;;;;;5.40;4.10;;;3.70;64.50;;;;;;5060437;28;20764;-83
2021/01/24 02:05:04;;;;;;;5.87;4.00;;;3.70;64.60;;;;;;5068511;28;20025;-82
2021/01/24 02:07:37;;;;;;;6.80;4.40;;;3.70;64.50;;;;;;5063435;28;20115;-82
2021/01/24 02:10:17;;;;;;;6.57;4.27;;;3.80;64.40;;;;;;5059948;28;20068;-82
2021/01/24 02:12:52;;;;;;;6.87;3.90;;;3.80;64.30;;;;;;5070621;28;20032;-82
2021/01/24 02:15:20;;;;;;;7.20;4.43;;;3.80;64.20;;;;;;5071520;28;20033;-82
2021/01/24 02:17:50;;;;;;;5.37;3.37;;;3.80;64.20;;;;;;5064988;28;20059;-82
2021/01/24 02:20:19;;;;;;;7.03;4.03;;;3.90;64.00;;;;;;5059808;28;20025;-82
2021/01/24 02:22:47;;;;;;;7.77;3.93;;;3.80;63.90;;;;;;5069691;28;20487;-82
2021/01/24 02:25:24;;;;;;;6.97;4.33;;;3.70;63.90;;;;;;5065666;28;20024;-82
2021/01/24 02:28:22;;;;;;;7.10;3.87;;;3.70;64.00;;;;;;5067904;28;20039;-82
2021/01/24 02:30:49;;;;;;;7.70;2.97;;;3.70;64.10;;;;;;5069944;28;20086;-82
2021/01/24 02:33:19;;;;;;;5.63;3.13;;;3.70;63.90;;;;;;5073793;28;20025;-82
2021/01/24 02:35:48;;;;;;;4.47;2.93;;;3.60;63.90;;;;;;5075588;28;20028;-82
2021/01/24 02:38:14;;;;;;;6.27;3.10;;;3.60;64.00;;;;;;5074268;28;20558;-82
2021/01/24 02:40:41;;;;;;;6.33;4.10;;;3.60;64.10;;;;;;5060458;28;20020;-83
2021/01/24 02:43:08;;;;;;;9.87;5.43;;;3.60;64.10;;;;;;5072814;28;20241;-83
2021/01/24 02:45:35;;;;;;;6.37;3.77;;;3.60;64.10;;;;;;5063923;28;20051;-83
2021/01/24 02:48:02;;;;;;;7.10;3.23;;;3.50;64.10;;;;;;5078216;28;20012;-83
2021/01/24 02:50:30;;;;;;;5.10;3.10;;;3.50;64.40;;;;;;5065978;28;20781;-82
2021/01/24 02:53:00;;;;;;;6.67;3.90;;;3.50;64.00;;;;;;5066019;28;20056;-83
2021/01/24 02:55:27;;;;;;;7.13;2.97;;;3.60;64.10;;;;;;5068033;28;20028;-82
2021/01/24 02:57:55;;;;;;;3.60;2.10;;;3.60;63.60;;;;;;5068064;28;20028;-82
2021/01/24 03:00:21;;;;;;;3.70;2.47;;;3.60;63.80;;;;;;5059401;28;20032;-82
2021/01/24 03:02:48;;;;;;;3.30;2.10;;;3.60;63.70;;;;;;5058322;28;20663;-83
2021/01/24 03:05:14;;;;;;;5.27;3.07;;;3.60;63.50;;;;;;5072241;28;20072;-83
2021/01/24 03:07:40;;;;;;;3.77;2.13;;;3.60;63.50;;;;;;5074370;28;20025;-82
2021/01/24 03:10:07;;;;;;;2.77;2.10;;;3.60;63.30;;;;;;5068786;28;20052;-82
2021/01/24 03:12:38;;;;;;;3.00;1.67;;;3.50;63.20;;;;;;5069520;28;20020;-82
2021/01/24 03:15:05;;;;;;;3.20;1.50;;;3.50;63.40;;;;;;5075896;28;20073;-82
2021/01/24 03:17:35;;;;;;;8.27;1.90;;;3.50;63.20;;;;;;5070074;28;20028;-82
2021/01/24 03:20:04;;;;;;;3.10;1.80;;;3.50;63.30;;;;;;5074865;28;20032;-83
2021/01/24 03:22:31;;;;;;;5.50;1.60;;;3.40;63.10;;;;;;5074239;28;20735;-83
2021/01/24 03:24:58;;;;;;;3.83;2.10;;;3.30;63.10;;;;;;5066416;28;20109;-83
2021/01/24 03:27:23;;;;;;;2.93;1.93;;;3.30;63.20;;;;;;5066961;28;20027;-83
2021/01/24 03:29:49;;;;;;;2.97;1.97;;;3.30;63.10;;;;;;5066403;28;20359;-83
2021/01/24 03:32:16;;;;;;;3.37;1.90;;;3.30;63.00;;;;;;5076149;28;20491;-83
2021/01/24 03:34:41;;;;;;;3.30;1.60;;;3.20;63.10;;;;;;5064014;28;20064;-83
2021/01/24 03:37:07;;;;;;;4.37;2.23;;;3.20;63.10;;;;;;5064306;28;20024;-83
2021/01/24 03:39:33;;;;;;;4.77;3.03;;;3.20;63.10;;;;;;5075002;28;20044;-83
2021/01/24 03:41:58;;;;;;;4.03;2.27;;;3.20;63.10;;;;;;5061256;28;20180;-83
2021/01/24 03:44:24;;;;;;;2.93;1.77;;;3.10;63.10;;;;;;5064562;28;20032;-83
2021/01/24 03:46:50;;;;;;;3.60;1.80;;;3.10;63.10;;;;;;5067196;28;20025;-83
2021/01/24 03:49:16;;;;;;;3.87;2.10;;;3.10;63.30;;;;;;5069793;28;20039;-83
2021/01/24 03:51:42;;;;;;;4.60;2.70;;;3.10;63.40;;;;;;5068663;28;20036;-83
2021/01/24 03:54:07;;;;;;;4.43;2.43;;;3.00;63.20;;;;;;5074068;28;20035;-83
2021/01/24 03:56:33;;;;;;;3.73;2.07;;;3.00;63.20;;;;;;5058593;28;20112;-83
2021/01/24 03:58:59;;;;;;;3.00;2.07;;;3.00;63.30;;;;;;5063706;28;20094;-83
2021/01/24 04:01:24;;;;;;;7.10;2.93;;;3.00;63.30;;;;;;5063879;28;20056;-83
2021/01/24 04:03:50;;;;;;;4.00;2.63;;;3.00;63.30;;;;;;5068875;28;20028;-82
2021/01/24 04:06:16;;;;;;;3.90;2.17;;;2.90;63.50;;;;;;5078037;28;20032;-82
2021/01/24 04:08:41;;;;;;;4.80;2.73;;;2.90;63.50;;;;;;5077291;28;20036;-82
2021/01/24 04:11:07;;;;;;;6.17;3.63;;;3.00;63.40;;;;;;5077178;28;20444;-82
2021/01/24 04:13:33;;;;;;;5.77;2.83;;;2.90;63.30;;;;;;5073585;28;20107;-82
2021/01/24 04:15:58;;;;;;;6.10;3.07;;;3.00;63.50;;;;;;5068904;28;20035;-82
2021/01/24 04:18:24;;;;;;;8.70;5.57;;;3.00;63.30;;;;;;5066758;28;20029;-83
2021/01/24 04:20:50;;;;;;;10.67;6.50;;;3.00;63.40;;;;;;5063678;28;20092;-83
2021/01/24 04:23:15;;;;;;;10.37;6.83;;;3.00;63.60;;;;;;5065019;28;20033;-83
2021/01/24 04:25:41;;;;;;;10.67;7.13;;;3.00;63.80;;;;;;5069207;28;20053;-82
2021/01/24 04:28:07;;;;;;;11.63;7.77;;;3.00;63.80;;;;;;5077082;28;20060;-82
2021/01/24 04:30:33;;;;;;;12.53;7.67;;;2.90;63.80;;;;;;5075563;28;20032;-83
2021/01/24 04:32:59;;;;;;;13.03;8.40;;;2.90;63.90;;;;;;5061974;28;20128;-83
2021/01/24 04:35:25;;;;;;;10.80;6.83;;;2.90;64.10;;;;;;5069368;28;20051;-83
2021/01/24 04:37:50;;;;;;;8.93;5.07;;;2.90;64.20;;;;;;5075505;28;20770;-82
2021/01/24 04:40:17;;;;;;;11.03;5.67;;;2.90;64.30;;;;;;5067501;28;20067;-83
2021/01/24 04:42:43;;;;;;;8.87;4.83;;;2.90;64.20;;;;;;5065154;28;20052;-83
2021/01/24 04:45:10;;;;;;;8.03;4.23;;;2.90;64.10;;;;;;5065307;28;20384;-82
2021/01/24 04:47:42;;;;;;;7.70;4.43;;;2.90;64.20;;;;;;5071013;28;20043;-82
2021/01/24 04:50:08;;;;;;;6.63;3.50;;;3.00;64.20;;;;;;5070802;28;20027;-82
2021/01/24 04:52:34;;;;;;;5.63;3.40;;;3.00;64.10;;;;;;5069668;28;20451;-82
2021/01/24 04:55:02;;;;;;;6.47;3.23;;;3.00;64.20;;;;;;5064934;28;20039;-82
2021/01/24 04:57:29;;;;;;;5.90;3.47;;;3.00;64.30;;;;;;5072009;28;20035;-82
2021/01/24 04:59:55;;;;;;;5.70;3.13;;;3.10;64.20;;;;;;5072038;28;20021;-83
2021/01/24 05:02:21;;;;;;;6.20;3.00;;;3.10;63.90;;;;;;5071419;28;20103;-83
2021/01/24 05:04:47;;;;;;;7.30;3.33;;;3.20;64.40;;;;;;5063497;28;20111;-83
2021/01/24 05:07:13;;;;;;;7.13;4.50;;;3.20;63.80;;;;;;5068920;28;20474;-83
2021/01/24 05:09:41;;;;;;;8.07;5.70;;;3.20;63.60;;;;;;5065575;28;20067;-83
2021/01/24 05:12:08;;;;;;;9.07;5.50;;;3.10;63.90;;;;;;5065598;28;20255;-83
2021/01/24 05:14:34;;;;;;;8.17;5.00;;;3.00;63.70;;;;;;5070479;28;20059;-83
2021/01/24 05:17:00;;;;;;;5.93;3.50;;;2.90;64.20;;;;;;5064619;28;20032;-83
2021/01/24 05:19:26;;;;;;;6.53;3.23;;;3.00;65.60;;;;;;5062517;28;20028;-83
2021/01/24 05:21:52;;;;;;;5.57;3.10;;;3.70;65.90;;;;;;5065955;28;20029;-83
2021/01/24 05:24:20;;;;;;;7.43;4.00;;;4.00;63.70;;;;;;5067251;28;20025;-83
2021/01/24 05:26:49;;;;;;;10.10;5.33;;;3.90;63.10;;;;;;5068878;28;20025;-83
2021/01/24 05:29:35;;;;;;;16.80;5.80;;;3.70;63.30;;;;;;5069036;28;20090;-83
2021/01/24 05:32:01;;;;;;;10.30;5.33;;;3.50;63.80;;;;;;5072433;28;20093;-83
2021/01/24 05:34:28;;;;;;;7.97;5.30;;;3.40;64.10;;;;;;5062728;28;20033;-83
2021/01/24 05:36:56;;;;;;;9.37;5.27;;;3.30;64.40;;;;;;5057907;28;20032;-83
2021/01/24 05:39:22;;;;;;;9.43;6.17;;;3.30;64.40;;;;;;5076429;28;20025;-83
2021/01/24 05:41:53;;;;;;;10.67;5.60;;;3.30;64.40;;;;;;5074875;28;20035;-82
2021/01/24 05:44:20;;;;;;;8.47;5.47;;;3.20;64.60;;;;;;5071395;28;20021;-83
2021/01/24 05:46:46;;;;;;;9.47;5.77;;;3.10;64.80;;;;;;5074596;28;20028;-83
2021/01/24 05:49:20;;;;;;;9.67;6.20;;;3.20;64.80;;;;;;5062826;28;20032;-83
2021/01/24 05:52:07;;;;;;;11.80;5.83;;;3.10;65.00;;;;;;5062182;28;20035;-83
2021/01/24 05:54:43;;;;;;;8.47;5.47;;;3.10;65.00;;;;;;5063208;28;20065;-83
2021/01/24 05:57:11;;;;;;;9.33;5.70;;;3.10;65.10;;;;;;5069309;28;20102;-83
2021/01/24 05:59:55;;;;;;;10.23;6.37;;;3.00;65.20;;;;;;5067081;28;20052;-82
2021/01/24 06:02:23;;;;;;;7.97;5.63;;;2.90;65.40;;;;;;5061365;28;20028;-84
2021/01/24 06:04:49;;;;;;;10.33;6.40;;;2.90;65.60;;;;;;5064428;28;20017;-84
2021/01/24 06:07:16;;;;;;;10.10;6.13;;;2.90;65.50;;;;;;5054219;28;20124;-84
2021/01/24 06:09:43;;;;;;;10.20;5.77;;;3.00;65.50;;;;;;5055329;28;20028;-84
2021/01/24 06:12:10;;;;;;;9.57;6.00;;;3.00;65.20;;;;;;5062243;28;20021;-84
2021/01/24 06:14:38;;;;;;;8.27;5.90;;;2.90;65.30;;;;;;5059502;28;20040;-85
2021/01/24 06:17:30;;;;;;;10.87;7.23;;;3.00;65.20;;;;;;5060286;28;20648;-84
2021/01/24 06:20:01;;;;;;;12.00;7.15;;;2.90;65.20;;;;;;5064893;28;20037;-84
2021/01/24 06:22:34;;;;;;;12.57;8.37;;;2.90;65.20;;;;;;5063861;28;20525;-85
2021/01/24 06:25:05;;;;;;;14.55;8.80;;;2.80;65.10;;;;;;5062745;28;20083;-85
2021/01/24 06:27:37;;;;;;;12.17;7.43;;;2.80;65.40;;;;;;5071135;28;20064;-85
2021/01/24 06:30:07;;;;;;;15.38;7.82;;;2.70;65.40;;;;;;5069749;28;20017;-84
2021/01/24 06:32:33;;;;;;;11.43;7.23;;;2.80;65.50;;;;;;5065643;28;20395;-84
2021/01/24 06:35:20;;;;;;;10.43;7.50;;;2.70;65.40;;;;;;5070140;28;20115;-85
2021/01/24 06:38:25;;;;;;;15.23;7.83;;;2.60;65.20;;;;;;5068900;28;20047;-85
2021/01/24 06:40:51;;;;;;;13.53;7.40;;;2.60;65.40;;;;;;5057148;28;20053;-85
2021/01/24 06:43:34;;;;;;;12.67;7.80;;;2.50;65.20;;;;;;5062542;28;20029;-85
2021/01/24 06:46:00;;;;;;;17.83;11.00;;;2.40;65.50;;;;;;5067846;28;20028;-84
2021/01/24 06:48:47;;;;;;;17.47;10.50;;;2.40;65.80;;;;;;5066155;28;20025;-84
2021/01/24 06:51:32;;;;;;;19.70;10.73;;;2.40;65.90;;;;;;5063620;28;20024;-84
2021/01/24 06:53:59;;;;;;;17.77;11.57;;;2.50;65.90;;;;;;5068999;28;20031;-84
2021/01/24 06:56:34;;;;;;;17.90;11.43;;;2.50;65.50;;;;;;5062781;28;20024;-84
2021/01/24 06:59:00;;;;;;;16.83;10.23;;;2.50;65.30;;;;;;5062915;28;20116;-84
2021/01/24 07:01:30;;;;;;;16.73;10.40;;;2.50;65.10;;;;;;5064648;28;20048;-84
2021/01/24 07:04:35;;;;;;;17.53;10.90;;;2.50;65.40;;;;;;5071586;28;20054;-85
2021/01/24 07:07:24;;;;;;;17.27;11.03;;;2.50;65.20;;;;;;5065939;28;20029;-84
2021/01/24 07:09:52;;;;;;;17.17;10.50;;;2.50;65.10;;;;;;5068456;28;20024;-85
2021/01/24 07:12:39;;;;;;;18.13;10.87;;;2.50;65.10;;;;;;5077273;28;20698;-84
2021/01/24 07:15:10;;;;;;;19.37;13.03;;;2.40;65.00;;;;;;5072385;28;20028;-84
2021/01/24 07:17:37;;;;;;;30.63;16.67;;;2.40;65.00;;;;;;5063259;28;20099;-84
2021/01/24 07:20:05;;;;;;;26.87;15.20;;;2.40;64.90;;;;;;5060221;28;20025;-84
2021/01/24 07:22:31;;;;;;;24.20;14.83;;;2.50;65.10;;;;;;5064613;28;20021;-84
2021/01/24 07:24:57;;;;;;;25.63;15.73;;;2.50;64.90;;;;;;5068071;28;20784;-84
2021/01/24 07:27:27;;;;;;;19.13;12.43;;;2.50;64.70;;;;;;5075186;28;20557;-84
2021/01/24 07:29:53;;;;;;;17.83;10.20;;;2.50;64.80;;;;;;5074929;28;20475;-84
2021/01/24 07:32:24;;;;;;;18.07;11.50;;;2.50;65.00;;;;;;5071245;28;20083;-84
2021/01/24 07:34:51;;;;;;;16.73;10.90;;;2.60;65.00;;;;;;5073473;28;20051;-84
2021/01/24 07:37:18;;;;;;;18.53;11.50;;;2.60;65.10;;;;;;5070184;28;20020;-84
2021/01/24 07:39:45;;;;;;;19.13;11.50;;;2.60;65.00;;;;;;5068873;28;20098;-84
2021/01/24 07:42:12;;;;;;;30.87;18.17;;;2.60;65.10;;;;;;5074753;28;20070;-84
2021/01/24 07:44:39;;;;;;;40.83;21.40;;;2.60;64.90;;;;;;5058518;28;20353;-84
2021/01/24 07:47:06;;;;;;;36.57;17.93;;;2.50;64.80;;;;;;5068648;28;20515;-84
2021/01/24 07:49:31;;;;;;;50.37;17.40;;;2.50;65.00;;;;;;5068965;28;20029;-84
2021/01/24 07:51:57;;;;;;;32.40;17.40;;;2.60;65.30;;;;;;5076051;28;20044;-85
2021/01/24 07:54:24;;;;;;;33.87;17.40;;;2.60;65.10;;;;;;5071509;28;20041;-84
2021/01/24 07:56:50;;;;;;;21.47;12.47;;;2.70;65.10;;;;;;5071606;28;20136;-84
2021/01/24 07:59:16;;;;;;;20.30;11.60;;;2.70;65.00;;;;;;5069676;28;20032;-84
2021/01/24 08:01:43;;;;;;;19.70;11.67;;;2.70;65.00;;;;;;5062850;28;20392;-84
2021/01/24 08:04:10;;;;;;;17.57;10.57;;;2.80;64.80;;;;;;5065855;28;20020;-84
2021/01/24 08:06:36;;;;;;;17.83;10.40;;;2.80;64.70;;;;;;5066605;28;20051;-84
2021/01/24 08:09:04;;;;;;;16.20;10.53;;;2.80;64.70;;;;;;5068946;28;20387;-84
2021/01/24 08:11:30;;;;;;;17.23;11.70;;;2.80;64.80;;;;;;5070579;28;20511;-84
2021/01/24 08:13:56;;;;;;;22.10;13.77;;;2.90;64.80;;;;;;5065418;28;20063;-83
2021/01/24 08:16:43;;;;;;;21.03;13.87;;;2.90;64.90;;;;;;5059071;28;20033;-83
2021/01/24 08:19:14;;;;;;;20.77;15.13;;;2.90;65.00;;;;;;5072246;28;20029;-83
2021/01/24 08:21:40;;;;;;;21.00;14.20;;;2.90;65.00;;;;;;5083401;28;20024;-83
2021/01/24 08:24:06;;;;;;;18.53;13.80;;;3.00;65.00;;;;;;5069576;28;20028;-83
2021/01/24 08:26:34;;;;;;;21.00;14.33;;;3.00;65.10;;;;;;5070926;28;20029;-81
2021/01/24 08:29:01;;;;;;;19.50;14.40;;;3.10;65.00;;;;;;5070275;28;20536;-83
2021/01/24 08:31:28;;;;;;;28.80;18.27;;;3.00;65.00;;;;;;5072837;28;20063;-83
2021/01/24 08:33:55;;;;;;;50.37;24.80;;;3.10;65.20;;;;;;5069315;28;20035;-83
2021/01/24 08:36:26;;;;;;;44.33;22.47;;;3.10;65.20;;;;;;5070979;28;20024;-83
2021/01/24 08:38:57;;;;;;;27.40;15.67;;;3.20;65.30;;;;;;5072083;28;20103;-83
2021/01/24 08:41:39;;;;;;;20.03;13.23;;;3.30;65.10;;;;;;5090332;28;20052;-83
2021/01/24 08:44:13;;;;;;;29.30;17.10;;;3.40;65.10;;;;;;5072544;28;20025;-83
2021/01/24 08:46:48;;;;;;;24.50;14.83;;;3.50;65.10;;;;;;5070890;28;20032;-83
2021/01/24 08:49:19;;;;;;;22.67;14.03;;;3.50;65.20;;;;;;5067865;28;20037;-83
2021/01/24 08:51:49;;;;;;;22.43;13.70;;;3.60;65.10;;;;;;5073937;28;20049;-83
2021/01/24 08:54:20;;;;;;;17.67;12.23;;;3.70;65.00;;;;;;5070779;28;20055;-83
2021/01/24 08:56:46;;;;;;;21.40;13.00;;;3.80;64.80;;;;;;5068684;28;20043;-83
2021/01/24 08:59:19;;;;;;;19.70;13.60;;;3.80;64.70;;;;;;5066077;28;20340;-83
2021/01/24 09:01:48;;;;;;;21.20;13.73;;;3.80;64.80;;;;;;5071112;28;20081;-83
2021/01/24 09:04:25;;;;;;;21.47;12.20;;;3.80;64.80;;;;;;5068320;28;20021;-82
2021/01/24 09:07:21;;;;;;;27.33;14.67;;;3.80;64.70;;;;;;5062001;28;20024;-83
2021/01/24 09:09:50;;;;;;;23.70;15.00;;;3.90;64.80;;;;;;5066527;28;20367;-83
2021/01/24 09:12:21;;;;;;;23.07;13.37;;;3.90;64.70;;;;;;5066668;28;20048;-83
2021/01/24 09:14:51;;;;;;;21.73;12.17;;;3.90;64.80;;;;;;5069441;28;20039;-83
2021/01/24 09:17:19;;;;;;;18.77;11.20;;;4.00;64.80;;;;;;5072868;28;20024;-83
2021/01/24 09:19:46;;;;;;;15.47;10.20;;;4.10;64.70;;;;;;5070756;28;20029;-83
2021/01/24 09:22:15;;;;;;;13.97;9.73;;;4.20;64.60;;;;;;5074250;28;20028;-83
2021/01/24 09:24:41;;;;;;;17.17;10.20;;;4.30;64.30;;;;;;5073808;28;20084;-83
2021/01/24 09:27:09;;;;;;;13.70;10.00;;;4.40;64.70;;;;;;5075128;28;20024;-83
2021/01/24 09:29:35;;;;;;;14.03;10.07;;;4.50;64.00;;;;;;5069862;28;20032;-83
2021/01/24 09:32:02;;;;;;;13.97;10.47;;;4.40;63.70;;;;;;5082981;28;20435;-83
2021/01/24 09:34:28;;;;;;;14.37;10.30;;;4.50;64.10;;;;;;5062695;28;20024;-83
2021/01/24 09:36:54;;;;;;;14.07;10.33;;;4.70;64.00;;;;;;5075093;28;20288;-83
2021/01/24 09:39:20;;;;;;;15.23;10.97;;;5.00;63.90;;;;;;5071619;28;20514;-83
2021/01/24 09:41:46;;;;;;;17.23;10.20;;;5.30;63.10;;;;;;5072822;28;20035;-84
2021/01/24 09:44:12;;;;;;;14.27;11.17;;;5.60;62.90;;;;;;5061026;28;20029;-83
2021/01/24 09:46:40;;;;;;;17.73;12.63;;;5.80;62.30;;;;;;5064345;28;20036;-83
2021/01/24 09:49:06;;;;;;;16.70;12.33;;;6.10;61.90;;;;;;5059030;28;20032;-83
2021/01/24 09:51:32;;;;;;;12.93;9.87;;;6.00;61.40;;;;;;5070553;28;20059;-84
2021/01/24 09:54:00;;;;;;;16.07;10.07;;;6.20;61.70;;;;;;5072749;28;20631;-84
2021/01/24 09:56:27;;;;;;;16.67;9.73;;;6.50;61.20;;;;;;5058713;28;20036;-84
2021/01/24 09:58:54;;;;;;;16.47;9.07;;;7.00;60.70;;;;;;5063797;28;20064;-84
2021/01/24 10:01:20;;;;;;;12.50;9.27;;;7.50;59.90;;;;;;5066216;28;20460;-84
2021/01/24 10:03:47;;;;;;;10.97;7.83;;;7.80;58.90;;;;;;5067132;28;20029;-84
2021/01/24 10:06:15;;;;;;;11.30;7.53;;;7.80;58.20;;;;;;5066910;28;20031;-84
2021/01/24 10:08:40;;;;;;;12.37;6.93;;;8.00;58.00;;;;;;5063858;28;20067;-84
2021/01/24 10:11:06;;;;;;;10.73;6.47;;;8.20;57.40;;;;;;5069555;28;20088;-84
2021/01/24 10:13:32;;;;;;;9.63;6.40;;;8.40;56.50;;;;;;5059980;28;20464;-83
2021/01/24 10:15:58;;;;;;;14.13;9.27;;;8.40;56.10;;;;;;5064446;28;20028;-83
2021/01/24 10:18:27;;;;;;;19.83;11.00;;;8.50;56.20;;;;;;5073552;28;20025;-84
2021/01/24 10:20:52;;;;;;;12.20;7.87;;;8.70;56.00;;;;;;5074349;28;20021;-84
2021/01/24 10:23:21;;;;;;;9.40;6.20;;;8.80;55.20;;;;;;5066701;28;20469;-84
2021/01/24 10:25:49;;;;;;;7.67;6.03;;;8.90;55.30;;;;;;5067010;28;20157;-84
2021/01/24 10:28:15;;;;;;;8.80;6.03;;;9.10;55.00;;;;;;5074821;28;20031;-84
2021/01/24 10:30:41;;;;;;;4.90;3.10;;;9.40;54.50;;;;;;5067697;28;20086;-84
2021/01/24 10:33:07;;;;;;;6.40;4.03;;;9.50;53.90;;;;;;5067647;28;20051;-84
2021/01/24 10:35:32;;;;;;;5.53;3.93;;;9.50;53.10;;;;;;5079264;28;20051;-84
2021/01/24 10:37:58;;;;;;;6.80;3.90;;;9.40;53.20;;;;;;5078975;28;20036;-84
2021/01/24 10:40:24;;;;;;;4.97;3.50;;;9.40;52.60;;;;;;5074381;28;20028;-84
2021/01/24 10:42:49;;;;;;;7.50;3.90;;;9.20;52.70;;;;;;5066108;28;20029;-83
2021/01/24 10:45:15;;;;;;;6.23;4.23;;;9.30;53.10;;;;;;5070220;28;20020;-84
2021/01/24 10:47:41;;;;;;;5.10;3.60;;;9.40;52.00;;;;;;5071866;28;20112;-84
2021/01/24 10:50:10;;;;;;;8.97;5.43;;;9.30;51.80;;;;;;5078345;28;20301;-83
2021/01/24 10:52:35;;;;;;;9.77;6.17;;;9.30;51.80;;;;;;5066556;28;20055;-84
2021/01/24 10:55:02;;;;;;;9.47;6.53;;;9.40;51.60;;;;;;5075356;28;20021;-84
2021/01/24 10:57:27;;;;;;;6.00;4.40;;;9.60;51.70;;;;;;5071230;28;20036;-84
2021/01/24 10:59:53;;;;;;;4.73;3.30;;;9.60;51.20;;;;;;5075453;28;20021;-84
2021/01/24 11:02:19;;;;;;;5.17;3.60;;;9.80;51.40;;;;;;5069397;28;20028;-84
2021/01/24 11:04:44;;;;;;;4.03;3.03;;;9.80;50.70;;;;;;5070957;28;20021;-84
2021/01/24 11:07:10;;;;;;;4.67;3.43;;;9.90;50.60;;;;;;5069096;28;20475;-84
2021/01/24 11:09:36;;;;;;;6.17;3.70;;;10.10;50.30;;;;;;5071284;28;20025;-82
2021/01/24 11:12:02;;;;;;;4.13;2.73;;;10.30;50.10;;;;;;5066496;28;20081;-84
2021/01/24 11:14:28;;;;;;;3.03;2.23;;;10.30;49.80;;;;;;5079788;28;20024;-84
2021/01/24 11:16:54;;;;;;;3.20;2.73;;;10.40;49.60;;;;;;5076510;28;20035;-84
2021/01/24 11:19:20;;;;;;;5.00;3.07;;;10.20;49.50;;;;;;5077941;28;20021;-84
2021/01/24 11:21:45;;;;;;;3.70;2.53;;;10.20;49.70;;;;;;5073861;28;20023;-84
2021/01/24 11:24:11;;;;;;;4.17;2.90;;;10.20;49.70;;;;;;5069320;28;20024;-84
2021/01/24 11:26:37;;;;;;;4.20;2.93;;;10.30;49.50;;;;;;5066199;28;20032;-84
2021/01/24 11:29:03;;;;;;;2.70;1.73;;;10.20;49.20;;;;;;5080603;28;20467;-84
2021/01/24 11:31:31;;;;;;;3.53;2.23;;;10.10;49.10;;;;;;5079699;28;20064;-84
2021/01/24 11:33:57;;;;;;;3.97;2.83;;;10.10;49.00;;;;;;5071451;28;20029;-84
2021/01/24 11:36:23;;;;;;;6.60;3.83;;;10.10;48.70;;;;;;5063737;28;20890;-84
2021/01/24 11:38:49;;;;;;;8.77;4.50;;;9.90;48.60;;;;;;5070429;28;20056;-84
2021/01/24 11:41:14;;;;;;;9.93;5.00;;;9.80;48.70;;;;;;5070675;28;20054;-84
2021/01/24 11:43:40;;;;;;;13.07;5.67;;;9.80;48.80;;;;;;5072472;28;20021;-84
2021/01/24 11:46:06;;;;;;;10.97;4.83;;;9.60;48.70;;;;;;5073375;28;20016;-84
2021/01/24 11:48:31;;;;;;;10.43;5.67;;;9.50;48.90;;;;;;5070961;28;20029;-84
2021/01/24 11:50:57;;;;;;;8.50;4.10;;;9.40;48.90;;;;;;5070172;28;20426;-84
2021/01/24 11:53:24;;;;;;;15.23;6.10;;;9.30;49.00;;;;;;5072470;28;20031;-84
2021/01/24 11:55:53;;;;;;;11.53;5.20;;;9.30;49.00;;;;;;5075712;28;20498;-83
2021/01/24 11:58:21;;;;;;;7.50;4.23;;;9.10;49.10;;;;;;5066566;28;20027;-84
2021/01/24 12:00:47;;;;;;;4.67;2.87;;;9.00;49.00;;;;;;5068589;28;20039;-84
2021/01/24 12:03:13;;;;;;;9.20;4.37;;;9.10;48.90;;;;;;5062821;28;20107;-84
2021/01/24 12:05:42;;;;;;;4.30;2.63;;;9.10;48.60;;;;;;5063345;28;20021;-84
2021/01/24 12:08:08;;;;;;;4.27;2.50;;;9.00;48.60;;;;;;5069372;28;20111;-84
2021/01/24 12:10:33;;;;;;;4.40;2.30;;;9.10;48.50;;;;;;5067716;28;20087;-84
2021/01/24 12:12:59;;;;;;;4.27;2.70;;;9.10;48.20;;;;;;5067277;28;20119;-84
2021/01/24 12:15:25;;;;;;;3.13;2.10;;;9.10;48.10;;;;;;5075879;28;20035;-84
2021/01/24 12:17:51;;;;;;;2.83;1.97;;;8.90;48.10;;;;;;5064871;28;20021;-84
2021/01/24 12:20:17;;;;;;;9.40;5.20;;;9.00;48.20;;;;;;5070016;28;20040;-84
2021/01/24 12:22:42;;;;;;;4.27;2.23;;;9.00;48.00;;;;;;5068351;28;20082;-83
2021/01/24 12:25:09;;;;;;;2.93;2.10;;;9.10;48.30;;;;;;5071471;28;20028;-84
2021/01/24 12:27:35;;;;;;;3.33;2.00;;;9.00;47.50;;;;;;5053642;28;20423;-83
2021/01/24 12:30:02;;;;;;;3.40;2.40;;;8.90;47.50;;;;;;5074137;28;20028;-84
2021/01/24 12:32:27;;;;;;;3.60;2.50;;;8.80;47.30;;;;;;5070842;28;20040;-84
2021/01/24 12:34:53;;;;;;;4.97;2.73;;;8.60;47.70;;;;;;5060916;28;20029;-84
2021/01/24 12:37:19;;;;;;;5.90;3.40;;;8.70;47.80;;;;;;5067628;28;20032;-84
2021/01/24 12:39:44;;;;;;;5.13;3.77;;;8.70;47.80;;;;;;5064212;28;20056;-84
2021/01/24 12:42:10;;;;;;;6.40;3.90;;;8.70;48.00;;;;;;5070553;28;20016;-84
2021/01/24 12:44:36;;;;;;;6.73;2.60;;;8.70;48.20;;;;;;5062577;28;20033;-84
2021/01/24 12:47:02;;;;;;;4.70;2.57;;;8.80;48.20;;;;;;5070061;28;20462;-84
2021/01/24 12:49:27;;;;;;;4.83;3.03;;;8.70;48.10;;;;;;5075676;28;20032;-84
2021/01/24 12:51:53;;;;;;;9.00;2.87;;;8.70;48.00;;;;;;5075409;28;20099;-84
2021/01/24 12:54:19;;;;;;;2.93;1.37;;;8.70;47.80;;;;;;5066725;28;20017;-84
2021/01/24 12:56:45;;;;;;;4.57;1.40;;;8.70;47.40;;;;;;5065961;28;20399;-84